Euskara    
Meteorología y climatología de Navarra
Datos de la estación - Meteo Navarra

Estación de Eltzaburu GN

Altitud 588 m.


Datos desde el 08/04/2021 hasta el 09/04/2021 en horario solar
Los datos son PROVISIONALES

Anterior Página 1 de 1 Siguiente Descargar: Formato para Excel 2000 o superior   Formato csv   Formato para OpenOffice Calc
Fecha Temperatura Humedad relativa Radiación global Insolación Precipitación Vel. viento 10 m Vel. viento 10 m Dir. viento 10 m
°C % W/m² s l/m² m/s km/h °
08/04/2021 0:00 -0.5 77 0.0 0 0.0 0.1 0.5 153
08/04/2021 0:10 -0.7 77 0.0 0 0.0 0.0 0.1 208
08/04/2021 0:20 -0.8 78 0.0 0 0.0 0.0 0.1 153
08/04/2021 0:30 -0.8 78 0.0 0 0.0 0.2 0.6 88
08/04/2021 0:40 -1.3 79 0.0 0 0.0 0.6 2.3 322
08/04/2021 0:50 -0.9 79 0.0 0 0.0 0.9 3.2 351
08/04/2021 1:00 -0.6 76 0.0 0 0.0 0.4 1.3 144
08/04/2021 1:10 -1.3 81 0.0 0 0.0 0.2 0.8 166
08/04/2021 1:20 -1.1 79 0.0 0 0.0 0.5 1.7 179
08/04/2021 1:30 -1.6 82 0.0 0 0.0 0.2 0.8 183
08/04/2021 1:40 -1.0 80 0.0 0 0.0 0.3 1.1 181
08/04/2021 1:50 -1.1 80 0.0 0 0.0 0.1 0.5 79
08/04/2021 2:00 -0.7 80 0.0 0 0.0 0.3 0.9 173
08/04/2021 2:10 -0.9 79 0.0 0 0.0 0.1 0.5 74
08/04/2021 2:20 -1.1 81 0.0 0 0.0 0.2 0.9 169
08/04/2021 2:30 -1.3 82 0.0 0 0.0 0.3 1.1 66
08/04/2021 2:40 -1.1 81 0.0 0 0.0 0.2 0.5 0
08/04/2021 2:50 -1.0 82 0.0 0 0.0 0.3 1.2 21
08/04/2021 3:00 -0.4 84 0.0 0 0.0 0.6 2.0 85
08/04/2021 3:10 1.2 83 0.0 0 0.0 0.6 2.2 97
08/04/2021 3:20 0.8 79 0.0 0 0.0 0.3 0.9 165
08/04/2021 3:30 0.5 84 0.0 0 0.0 0.2 0.8 148
08/04/2021 3:40 1.8 83 0.0 0 0.0 0.5 1.9 77
08/04/2021 3:50 2.5 78 0.0 0 0.0 0.6 2.2 58
08/04/2021 4:00 2.8 77 0.0 0 0.0 0.8 3.0 74
08/04/2021 4:10 2.5 78 0.0 0 0.0 0.4 1.5 115
08/04/2021 4:20 2.4 80 0.0 0 0.0 0.1 0.3 128
08/04/2021 4:30 2.6 79 0.0 0 0.0 0.5 1.7 62
08/04/2021 4:40 2.7 79 0.0 0 0.0 0.5 1.9 59
08/04/2021 4:50 2.8 79 0.0 0 0.0 0.7 2.5 74
08/04/2021 5:00 2.8 81 0.0 0 0.0 0.6 2.1 81
08/04/2021 5:10 2.8 81 0.0 0 0.0 0.6 2.0 110
08/04/2021 5:20 2.6 82 0.0 0 0.0 0.5 1.9 93
08/04/2021 5:30 2.3 82 0.0 0 0.0 0.6 2.2 98
08/04/2021 5:40 2.2 84 0.0 0 0.0 1.1 3.8 82
08/04/2021 5:50 2.1 85 0.0 0 0.0 0.9 3.1 83
08/04/2021 6:00 2.0 87 0.0 0 0.0 0.6 2.2 89
08/04/2021 6:10 2.0 89 16.8 0 0.0 0.4 1.5 93
08/04/2021 6:20 2.0 91 24.9 0 0.0 0.7 2.6 83
08/04/2021 6:30 2.0 91 33.4 0 0.0 0.6 2.0 94
08/04/2021 6:40 2.3 92 38.2 0 0.0 0.5 1.8 87
08/04/2021 6:50 2.4 92 51.0 0 0.0 0.3 1.1 120
08/04/2021 7:00 2.6 92 60.9 0 0.0 0.7 2.4 122
08/04/2021 7:10 3.1 91 68.8 0 0.0 0.5 1.6 123
08/04/2021 7:20 3.6 90 166.7 330 0.0 0.7 2.6 124
08/04/2021 7:30 4.4 87 197.9 270 0.0 0.6 2.0 117
08/04/2021 7:40 5.1 84 217.4 580 0.0 0.8 3.0 119
08/04/2021 7:50 5.5 81 217.0 482 0.0 1.0 3.7 113
08/04/2021 8:00 5.8 79 212.1 178 0.0 0.9 3.1 115
08/04/2021 8:10 6.0 79 237.6 298 0.0 0.8 3.0 134
08/04/2021 8:20 6.3 77 264.6 414 0.0 1.3 4.6 152
08/04/2021 8:30 6.7 76 259.3 136 0.0 1.2 4.2 136
08/04/2021 8:40 7.0 75 280.1 274 0.0 1.6 5.7 155
08/04/2021 8:50 7.3 73 310.7 430 0.0 1.6 5.6 158
08/04/2021 9:00 7.5 72 327.4 480 0.0 2.0 7.0 152
08/04/2021 9:10 7.9 72 351.5 600 0.0 1.9 6.9 169
08/04/2021 9:20 8.1 71 394.3 600 0.0 2.4 8.8 171
08/04/2021 9:30 8.4 70 478.3 600 0.0 2.3 8.2 165
08/04/2021 9:40 8.8 69 400.1 554 0.0 2.8 10.0 166
08/04/2021 9:50 8.8 68 472.0 600 0.0 2.5 9.0 161
08/04/2021 10:00 9.3 68 516.4 600 0.0 2.8 10.1 169
08/04/2021 10:10 9.5 68 537.8 600 0.0 3.1 11.1 173
08/04/2021 10:20 9.7 67 528.4 600 0.0 3.3 11.7 172
08/04/2021 10:30 9.8 66 575.6 600 0.0 3.7 13.4 170
08/04/2021 10:40 10.1 66 587.4 600 0.0 3.2 11.5 172
08/04/2021 10:50 10.5 66 752.4 600 0.0 3.4 12.3 172
08/04/2021 11:00 10.7 65 817.0 600 0.0 4.3 15.5 177
08/04/2021 11:10 11.2 65 917.0 600 0.0 3.4 12.2 169
08/04/2021 11:20 11.8 63 873.0 600 0.0 3.3 11.8 170
08/04/2021 11:30 11.6 64 885.0 596 0.0 3.6 12.8 170
08/04/2021 11:40 11.7 64 852.0 588 0.0 3.2 11.5 181
08/04/2021 11:50 12.3 63 901.0 600 0.0 3.0 10.9 169
08/04/2021 12:00 12.3 62 813.0 508 0.0 2.7 9.8 160
08/04/2021 12:10 12.8 60 727.6 474 0.0 2.4 8.6 150
08/04/2021 12:20 12.8 64 910.0 600 0.0 2.5 9.1 169
08/04/2021 12:30 13.0 62 770.5 594 0.0 2.7 9.7 161
08/04/2021 12:40 12.7 62 731.6 514 0.0 3.2 11.6 168
08/04/2021 12:50 13.0 61 809.0 600 0.0 3.4 12.2 170
08/04/2021 13:00 13.7 60 908.0 600 0.0 3.7 13.5 172
08/04/2021 13:10 13.4 60 825.0 600 0.0 4.3 15.3 177
08/04/2021 13:20 13.8 58 836.0 600 0.0 3.0 10.9 158
08/04/2021 13:30 13.8 58 651.8 600 0.0 2.4 8.7 156
08/04/2021 13:40 14.4 58 796.0 600 0.0 2.6 9.4 167
08/04/2021 13:50 14.3 58 657.9 600 0.0 3.1 11.0 183
08/04/2021 14:00 13.9 58 424.9 438 0.0 3.3 11.8 182
08/04/2021 14:10 14.2 59 501.3 600 0.0 2.8 10.0 178
08/04/2021 14:20 14.5 56 496.1 600 0.0 2.3 8.3 156
08/04/2021 14:30 14.5 56 390.6 600 0.0 2.0 7.0 160
08/04/2021 14:40 14.3 58 416.5 600 0.0 2.0 7.2 169
08/04/2021 14:50 14.8 57 399.1 600 0.0 1.7 6.2 158
08/04/2021 15:00 14.7 55 394.3 600 0.0 2.1 7.5 156
08/04/2021 15:10 14.9 54 453.8 600 0.0 2.0 7.1 155
08/04/2021 15:20 15.5 55 622.9 600 0.0 2.2 7.9 163
08/04/2021 15:30 15.3 54 369.9 580 0.0 2.3 8.1 162
08/04/2021 15:40 15.0 56 309.0 286 0.0 2.2 7.8 171
08/04/2021 15:50 15.4 57 460.7 600 0.0 2.1 7.5 174
08/04/2021 16:00 15.6 56 542.3 600 0.0 3.1 11.2 190
08/04/2021 16:10 15.6 55 403.4 560 0.0 2.8 10.0 183
08/04/2021 16:20 15.7 56 409.4 600 0.0 2.5 9.0 178
08/04/2021 16:30 15.6 55 329.3 600 0.0 2.0 7.2 176
08/04/2021 16:40 15.7 56 374.3 600 0.0 2.7 9.6 189
08/04/2021 16:50 15.8 54 272.5 498 0.0 2.2 7.8 167
08/04/2021 17:00 15.5 55 218.3 594 0.0 2.0 7.3 171
08/04/2021 17:10 15.4 56 273.1 600 0.0 2.2 7.8 180
08/04/2021 17:20 15.7 54 251.1 600 0.0 1.7 6.2 172
08/04/2021 17:30 15.7 54 182.0 600 0.0 1.7 6.0 169
08/04/2021 17:40 15.4 55 143.1 600 0.0 1.7 5.9 179
08/04/2021 17:50 15.2 55 87.2 396 0.0 1.5 5.4 173
08/04/2021 18:00 14.6 55 30.1 0 0.0 2.0 7.1 174
08/04/2021 18:10 14.2 56 19.8 0 0.0 1.4 5.2 186
08/04/2021 18:20 14.1 56 0.2 0 0.0 2.0 7.0 170
08/04/2021 18:30 14.0 57 0.0 0 0.0 0.8 2.8 140
08/04/2021 18:40 13.7 58 0.0 0 0.0 1.0 3.5 145
08/04/2021 18:50 13.6 58 0.0 0 0.0 1.1 4.0 143
08/04/2021 19:00 13.6 58 0.0 0 0.0 0.7 2.3 129
08/04/2021 19:10 13.4 59 0.0 0 0.0 0.6 2.2 110
08/04/2021 19:20 13.1 60 0.0 0 0.0 0.5 1.7 82
08/04/2021 19:30 12.7 61 0.0 0 0.0 0.6 2.0 71
08/04/2021 19:40 12.5 62 0.0 0 0.0 0.8 2.7 86
08/04/2021 19:50 12.3 63 0.0 0 0.0 0.6 2.0 100
08/04/2021 20:00 12.0 65 0.0 0 0.0 0.4 1.6 88
08/04/2021 20:10 12.0 65 0.0 0 0.0 0.7 2.3 57
08/04/2021 20:20 12.1 64 0.0 0 0.0 0.5 1.9 183
08/04/2021 20:30 11.8 65 0.0 0 0.0 0.4 1.3 75
08/04/2021 20:40 12.0 65 0.0 0 0.0 0.5 1.8 107
08/04/2021 20:50 11.5 67 0.0 0 0.0 0.6 2.1 115
08/04/2021 21:00 11.6 67 0.0 0 0.0 0.5 1.8 99
08/04/2021 21:10 11.8 67 0.0 0 0.0 0.6 2.1 109
08/04/2021 21:20 11.8 66 0.0 0 0.0 0.4 1.3 147
08/04/2021 21:30 12.1 65 0.0 0 0.0 0.5 1.9 85
08/04/2021 21:40 12.3 65 0.0 0 0.0 0.8 3.0 71
08/04/2021 21:50 12.3 65 0.0 0 0.0 0.8 2.8 66
08/04/2021 22:00 12.3 64 0.0 0 0.0 1.2 4.4 64
08/04/2021 22:10 12.0 66 0.0 0 0.0 1.0 3.5 99
08/04/2021 22:20 12.1 65 0.0 0 0.0 1.1 3.8 123
08/04/2021 22:30 11.8 67 0.0 0 0.0 0.4 1.4 118
08/04/2021 22:40 11.4 68 0.0 0 0.0 1.1 3.8 78
08/04/2021 22:50 11.8 66 0.0 0 0.0 0.8 3.0 347
08/04/2021 23:00 11.6 67 0.0 0 0.0 0.9 3.1 285
08/04/2021 23:10 11.6 66 0.0 0 0.0 0.7 2.3 71
08/04/2021 23:20 11.4 67 0.0 0 0.0 0.8 3.0 111
08/04/2021 23:30 11.4 67 0.0 0 0.0 0.6 2.1 1
08/04/2021 23:40 11.2 67 0.0 0 0.0 0.6 2.1 26
08/04/2021 23:50 10.9 69 0.0 0 0.0 1.2 4.4 73
Anterior Página 1 de 1 Siguiente

NOTA: Tipo de datos según el color:
   - Valores diarios o 10 minutos correctos
   - Valores diarios calculados a partir de un número de datos 10 minutos menor que 144 y mayor que 120, o de un número de datos semihorarios menor que 48 y mayor que 40 (caso de las estaciones de INTIA Y Ministerio)
   - Valores diez minutos estimados


Contacto        Enlaces        Aviso legal